Time;durP1;ratioP1;P1;durP2;ratioP2;P2;SDS_P1;SDS_P2;PMS_P1;PMS_P2;Temp;Humidity;BMP_temperature;BMP_pressure;BME280_temperature;BME280_humidity;BME280_pressure;Samples;Min_cycle;Max_cycle;Signal;HPM_P1;HPM_P2
2022/10/09 00:01:26;;;;;;;12.50;5.05;;;7.40;99.90;;;;;;5075710;28;20048;-80
2022/10/09 00:03:54;;;;;;;8.38;3.67;;;7.30;99.90;;;;;;5074588;28;20097;-80
2022/10/09 00:06:22;;;;;;;7.82;4.13;;;7.40;99.90;;;;;;5075101;28;20045;-80
2022/10/09 00:08:49;;;;;;;28.67;12.40;;;7.30;99.90;;;;;;5075395;28;20040;-80
2022/10/09 00:11:18;;;;;;;28.50;13.50;;;7.30;99.90;;;;;;5075687;28;20089;-80
2022/10/09 00:13:44;;;;;;;22.25;11.18;;;7.10;99.90;;;;;;5075367;28;20123;-80
2022/10/09 00:16:12;;;;;;;21.08;7.75;;;7.20;99.90;;;;;;5074367;28;20127;-80
2022/10/09 00:18:38;;;;;;;11.02;5.55;;;7.20;99.90;;;;;;5074263;28;20535;-80
2022/10/09 00:21:13;;;;;;;5.97;3.58;;;7.10;99.90;;;;;;5075225;28;20066;-80
2022/10/09 00:23:38;;;;;;;8.02;3.50;;;7.10;99.90;;;;;;5074631;28;20047;-80
2022/10/09 00:26:05;;;;;;;7.15;3.25;;;7.10;99.90;;;;;;5073849;28;20053;-80
2022/10/09 00:28:31;;;;;;;10.60;3.20;;;7.00;99.90;;;;;;5073925;28;20086;-80
2022/10/09 00:30:57;;;;;;;6.72;3.10;;;7.00;99.90;;;;;;5075023;28;20049;-80
2022/10/09 00:33:23;;;;;;;9.63;3.38;;;7.00;99.90;;;;;;5075072;28;20045;-80
2022/10/09 00:35:49;;;;;;;11.85;3.22;;;6.90;99.90;;;;;;5075063;28;20086;-80
2022/10/09 00:38:14;;;;;;;7.15;2.95;;;6.90;99.90;;;;;;5075156;28;20555;-80
2022/10/09 00:40:40;;;;;;;12.35;3.08;;;6.90;99.90;;;;;;5074903;28;20507;-80
2022/10/09 00:43:16;;;;;;;7.25;3.67;;;6.80;99.90;;;;;;5073460;28;20048;-80
2022/10/09 00:45:55;;;;;;;6.20;3.38;;;6.80;99.90;;;;;;5073322;28;20077;-80
2022/10/09 00:48:21;;;;;;;8.07;3.15;;;6.70;99.90;;;;;;5074627;28;20393;-80
2022/10/09 00:50:57;;;;;;;9.13;3.45;;;6.70;99.90;;;;;;5074591;28;20055;-80
2022/10/09 00:53:25;;;;;;;6.22;2.88;;;7.00;99.90;;;;;;5073822;28;20059;-81
2022/10/09 00:55:51;;;;;;;6.88;3.80;;;6.60;99.90;;;;;;5074524;28;20051;-80
2022/10/09 00:58:17;;;;;;;7.40;2.97;;;6.60;99.90;;;;;;5073527;28;20404;-80
2022/10/09 01:00:43;;;;;;;9.53;3.80;;;6.60;99.90;;;;;;5074468;28;20049;-80
2022/10/09 01:03:08;;;;;;;6.38;3.67;;;6.60;99.90;;;;;;5074538;28;20055;-80
2022/10/09 01:05:48;;;;;;;10.82;3.45;;;6.60;99.90;;;;;;5073489;28;20040;-81
2022/10/09 01:08:23;;;;;;;7.85;3.33;;;6.60;99.90;;;;;;5074212;28;20051;-80
2022/10/09 01:10:56;;;;;;;8.10;3.72;;;6.50;99.90;;;;;;5074172;28;20051;-80
2022/10/09 01:13:37;;;;;;;5.50;3.53;;;6.50;99.90;;;;;;5074260;28;20044;-80
2022/10/09 01:16:20;;;;;;;5.50;3.22;;;6.50;99.90;;;;;;5074454;28;20182;-80
2022/10/09 01:18:52;;;;;;;7.38;3.35;;;6.50;99.90;;;;;;5074185;28;20044;-81
2022/10/09 01:21:33;;;;;;;10.65;3.85;;;6.50;99.90;;;;;;5074116;28;20045;-80
2022/10/09 01:24:04;;;;;;;6.00;3.13;;;6.40;99.90;;;;;;5074111;28;20040;-81
2022/10/09 01:26:59;;;;;;;6.70;2.63;;;6.40;99.90;;;;;;5074011;28;20055;-80
2022/10/09 01:29:30;;;;;;;12.25;3.28;;;6.30;99.90;;;;;;5073848;28;20044;-80
2022/10/09 01:31:57;;;;;;;7.57;3.30;;;6.30;99.90;;;;;;5074585;28;20110;-81
2022/10/09 01:34:25;;;;;;;8.57;3.50;;;6.30;99.90;;;;;;5073919;28;20497;-80
2022/10/09 01:36:52;;;;;;;8.55;3.00;;;6.30;99.90;;;;;;5073231;28;20399;-80
2022/10/09 01:39:20;;;;;;;;;;;6.20;99.90;;;;;;5074441;28;20063;-80
2022/10/09 01:41:49;;;;;;;6.35;2.70;;;6.20;99.90;;;;;;5073880;28;19927;-81
2022/10/09 01:44:17;;;;;;;6.60;2.97;;;6.20;99.90;;;;;;5074398;28;20098;-80
2022/10/09 01:46:42;;;;;;;12.63;3.25;;;6.20;99.90;;;;;;5074351;28;20090;-80
2022/10/09 01:49:34;;;;;;;6.55;3.10;;;6.20;99.90;;;;;;5073977;28;20465;-80
2022/10/09 01:52:22;;;;;;;5.43;2.70;;;6.20;99.90;;;;;;5073564;28;20507;-80
2022/10/09 01:55:18;;;;;;;8.30;3.35;;;6.10;99.90;;;;;;5072203;28;20131;-80
2022/10/09 01:58:10;;;;;;;7.38;3.40;;;6.00;99.90;;;;;;5072837;28;20048;-80
2022/10/09 02:00:41;;;;;;;7.68;3.38;;;6.00;99.90;;;;;;5073707;28;20049;-80
2022/10/09 02:03:11;;;;;;;7.30;3.30;;;6.00;99.90;;;;;;5072932;28;20106;-79
2022/10/09 02:05:39;;;;;;;8.38;3.35;;;6.00;99.90;;;;;;5073495;28;20045;-81
2022/10/09 02:08:05;;;;;;;5.53;3.40;;;5.90;99.90;;;;;;5073440;28;20111;-80
2022/10/09 02:10:33;;;;;;;6.97;3.47;;;5.90;99.90;;;;;;5073548;28;20127;-80
2022/10/09 02:13:00;;;;;;;6.78;3.63;;;5.90;99.90;;;;;;5072513;28;20495;-80
2022/10/09 02:15:40;;;;;;;6.15;3.20;;;5.90;99.90;;;;;;5073436;28;20048;-80
2022/10/09 02:18:11;;;;;;;9.77;3.78;;;5.90;99.90;;;;;;5073796;28;20511;-80
2022/10/09 02:20:43;;;;;;;5.05;2.97;;;6.50;99.90;;;;;;5072595;28;20044;-80
2022/10/09 02:23:10;;;;;;;7.18;3.83;;;5.80;99.90;;;;;;5072422;28;20473;-80
2022/10/09 02:25:36;;;;;;;5.78;3.35;;;5.80;99.90;;;;;;5073185;28;20104;-80
2022/10/09 02:28:02;;;;;;;8.43;3.83;;;5.80;99.90;;;;;;5073316;28;20037;-80
2022/10/09 02:30:46;;;;;;;8.30;3.53;;;5.80;99.90;;;;;;5073289;28;20045;-80
2022/10/09 02:33:12;;;;;;;10.38;3.25;;;5.80;99.90;;;;;;5073413;28;20045;-80
2022/10/09 02:35:38;;;;;;;5.72;3.58;;;5.80;99.90;;;;;;5073212;28;20040;-81
2022/10/09 02:38:04;;;;;;;11.23;3.83;;;5.80;99.90;;;;;;5072287;28;20052;-80
2022/10/09 02:40:29;;;;;;;6.40;3.95;;;5.80;99.90;;;;;;5073185;28;20439;-81
2022/10/09 02:42:55;;;;;;;5.53;3.55;;;5.80;99.90;;;;;;5072927;28;20059;-80
2022/10/09 02:45:20;;;;;;;8.38;4.15;;;5.80;99.90;;;;;;5073135;28;20049;-80
2022/10/09 02:47:46;;;;;;;7.72;3.70;;;5.80;99.90;;;;;;5073993;28;20075;-80
2022/10/09 02:50:11;;;;;;;9.38;4.57;;;5.70;99.90;;;;;;5076937;28;20396;-80
2022/10/09 02:52:37;;;;;;;7.93;3.38;;;5.70;99.90;;;;;;5076916;28;20094;-81
2022/10/09 02:55:03;;;;;;;5.65;3.60;;;5.60;99.90;;;;;;5075842;28;20063;-80
2022/10/09 02:57:28;;;;;;;11.90;3.85;;;5.60;99.90;;;;;;5077251;28;20040;-80
2022/10/09 02:59:54;;;;;;;7.30;4.95;;;5.60;99.90;;;;;;5076790;28;20081;-80
2022/10/09 03:02:19;;;;;;;8.18;3.70;;;5.60;99.90;;;;;;5076726;28;20148;-80
2022/10/09 03:04:45;;;;;;;7.68;3.72;;;5.60;99.90;;;;;;5076868;28;20044;-81
2022/10/09 03:07:10;;;;;;;6.65;4.00;;;5.50;99.90;;;;;;5076775;28;20097;-81
2022/10/09 03:09:36;;;;;;;7.28;4.05;;;5.50;99.90;;;;;;5076423;28;20131;-80
2022/10/09 03:12:02;;;;;;;10.88;4.30;;;5.50;99.90;;;;;;5076570;28;20397;-80
2022/10/09 03:14:27;;;;;;;7.38;3.20;;;5.50;99.90;;;;;;5076458;28;20043;-80
2022/10/09 03:16:53;;;;;;;9.30;3.70;;;5.40;99.90;;;;;;5076525;28;20555;-80
2022/10/09 03:19:18;;;;;;;9.88;3.47;;;5.50;99.90;;;;;;5076556;28;20044;-81
2022/10/09 03:21:44;;;;;;;12.10;4.63;;;5.50;99.90;;;;;;5076148;28;20480;-81
2022/10/09 03:24:10;;;;;;;8.65;4.38;;;5.50;99.90;;;;;;5076467;28;20133;-81
2022/10/09 03:26:35;;;;;;;11.18;3.90;;;5.50;99.90;;;;;;5076298;28;20500;-80
2022/10/09 03:29:01;;;;;;;5.80;3.45;;;5.40;99.90;;;;;;5076626;28;20036;-80
2022/10/09 03:31:26;;;;;;;9.27;3.92;;;5.40;99.90;;;;;;5076259;28;20476;-81
2022/10/09 03:33:52;;;;;;;9.05;4.07;;;5.50;99.90;;;;;;5076128;28;20047;-81
2022/10/09 03:36:18;;;;;;;6.88;4.05;;;5.30;99.90;;;;;;5076394;28;20123;-80
2022/10/09 03:38:43;;;;;;;4.75;3.45;;;6.60;99.90;;;;;;5075214;28;20052;-81
2022/10/09 03:41:09;;;;;;;8.35;3.90;;;5.30;99.90;;;;;;5075709;28;20051;-81
2022/10/09 03:43:35;;;;;;;8.65;3.70;;;5.30;99.90;;;;;;5075914;28;20071;-81
2022/10/09 03:46:06;;;;;;;7.85;4.45;;;5.30;99.90;;;;;;5076339;28;20052;-80
2022/10/09 03:48:32;;;;;;;7.80;4.75;;;5.20;99.90;;;;;;5075855;28;20412;-80
2022/10/09 03:50:57;;;;;;;8.30;3.53;;;5.20;99.90;;;;;;5075836;28;20049;-81
2022/10/09 03:53:23;;;;;;;7.00;3.80;;;5.20;99.90;;;;;;5075901;28;20048;-80
2022/10/09 03:55:49;;;;;;;7.63;3.83;;;5.20;99.90;;;;;;5074559;28;20052;-81
2022/10/09 03:58:14;;;;;;;10.90;3.72;;;5.20;99.90;;;;;;5075708;28;20044;-81
2022/10/09 04:00:42;;;;;;;11.65;4.85;;;5.10;99.90;;;;;;5073909;28;20044;-81
2022/10/09 04:03:08;;;;;;;7.07;3.95;;;5.10;99.90;;;;;;5074844;28;20080;-81
2022/10/09 04:05:34;;;;;;;7.22;4.15;;;5.00;99.90;;;;;;5075245;28;20118;-81
2022/10/09 04:07:59;;;;;;;5.25;3.30;;;5.00;99.90;;;;;;5075500;28;20036;-80
2022/10/09 04:10:25;;;;;;;9.85;4.65;;;5.00;99.90;;;;;;5075439;28;20047;-80
2022/10/09 04:12:51;;;;;;;11.43;4.07;;;5.00;99.90;;;;;;5075377;28;20052;-80
2022/10/09 04:15:16;;;;;;;7.43;3.75;;;4.90;99.90;;;;;;5075734;28;20119;-82
2022/10/09 04:17:42;;;;;;;9.88;4.15;;;4.90;99.90;;;;;;5075633;28;20048;-80
2022/10/09 04:20:08;;;;;;;6.88;4.10;;;4.90;99.90;;;;;;5075241;28;20044;-80
2022/10/09 04:22:33;;;;;;;6.57;4.07;;;4.90;99.90;;;;;;5075270;28;20049;-81
2022/10/09 04:24:59;;;;;;;7.38;4.28;;;4.90;99.90;;;;;;5075098;28;20075;-82
2022/10/09 04:27:24;;;;;;;7.75;4.07;;;5.00;99.90;;;;;;5075112;28;20545;-80
2022/10/09 04:29:50;;;;;;;8.40;4.20;;;4.90;99.90;;;;;;5074736;28;20128;-80
2022/10/09 04:32:16;;;;;;;6.88;4.13;;;4.90;99.90;;;;;;5075097;28;20104;-81
2022/10/09 04:34:41;;;;;;;8.95;4.03;;;4.90;99.90;;;;;;5075256;28;20427;-80
2022/10/09 04:37:07;;;;;;;8.15;3.47;;;4.90;99.90;;;;;;5074965;28;20037;-81
2022/10/09 04:39:32;;;;;;;12.05;5.40;;;4.90;99.90;;;;;;5074846;28;20127;-80
2022/10/09 04:41:58;;;;;;;7.78;4.38;;;4.90;99.90;;;;;;5074655;28;20055;-80
2022/10/09 04:44:23;;;;;;;7.25;4.28;;;5.00;99.90;;;;;;5074991;28;20056;-81
2022/10/09 04:46:50;;;;;;;6.97;4.10;;;4.90;99.90;;;;;;5074752;28;20036;-80
2022/10/09 04:49:16;;;;;;;7.20;3.50;;;4.90;99.90;;;;;;5074487;28;20036;-80
2022/10/09 04:51:43;;;;;;;7.97;4.50;;;5.30;99.90;;;;;;5074806;28;20154;-80
2022/10/09 04:54:09;;;;;;;8.32;4.45;;;4.90;99.90;;;;;;5074209;28;20477;-80
2022/10/09 04:56:35;;;;;;;7.30;4.07;;;4.90;99.90;;;;;;5075221;28;20055;-80
2022/10/09 04:59:01;;;;;;;10.48;4.72;;;4.90;99.90;;;;;;5074558;28;20036;-80
2022/10/09 05:01:27;;;;;;;7.07;4.72;;;4.90;99.90;;;;;;5074454;28;20066;-82
2022/10/09 05:03:53;;;;;;;7.05;4.05;;;4.90;99.90;;;;;;5074427;28;20102;-81
2022/10/09 05:06:37;;;;;;;14.20;4.60;;;5.00;99.90;;;;;;5074327;28;20098;-80
2022/10/09 05:09:03;;;;;;;7.25;4.32;;;4.80;99.90;;;;;;5074174;28;20385;-80
2022/10/09 05:11:28;;;;;;;13.60;4.30;;;4.80;99.90;;;;;;5073258;28;20041;-80
2022/10/09 05:13:56;;;;;;;8.38;4.50;;;4.80;99.90;;;;;;5074238;28;20049;-80
2022/10/09 05:16:25;;;;;;;7.95;4.35;;;4.80;99.90;;;;;;5073980;28;20041;-81
2022/10/09 05:18:56;;;;;;;11.98;4.95;;;4.80;99.90;;;;;;5073071;28;20422;-81
2022/10/09 05:21:22;;;;;;;9.07;4.95;;;5.30;99.90;;;;;;5073216;28;20048;-80
2022/10/09 05:23:48;;;;;;;12.60;4.73;;;4.80;99.90;;;;;;5074120;28;20088;-80
2022/10/09 05:26:19;;;;;;;8.82;5.00;;;4.80;99.90;;;;;;5073936;28;20127;-80
2022/10/09 05:28:45;;;;;;;15.25;5.57;;;4.80;99.90;;;;;;5073995;28;20426;-79
2022/10/09 05:31:18;;;;;;;9.83;5.00;;;4.80;99.90;;;;;;5073774;28;20542;-80
2022/10/09 05:33:44;;;;;;;7.28;4.25;;;4.70;99.90;;;;;;5074122;28;20047;-81
2022/10/09 05:36:09;;;;;;;8.73;4.25;;;4.70;99.90;;;;;;5073889;28;20044;-80
2022/10/09 05:38:38;;;;;;;7.70;4.05;;;4.70;99.90;;;;;;5074175;28;20495;-81
2022/10/09 05:41:19;;;;;;;6.20;4.30;;;4.70;99.90;;;;;;5074194;28;20127;-80
2022/10/09 05:43:49;;;;;;;12.98;4.75;;;4.70;99.90;;;;;;5072409;28;20059;-82
2022/10/09 05:46:22;;;;;;;6.70;4.10;;;4.70;99.90;;;;;;5073921;28;20197;-80
2022/10/09 05:49:06;;;;;;;7.18;4.15;;;4.70;99.90;;;;;;5072612;28;20049;-81
2022/10/09 05:51:35;;;;;;;11.60;4.63;;;4.70;99.90;;;;;;5073553;28;20511;-82
2022/10/09 05:54:13;;;;;;;5.97;4.22;;;4.70;99.90;;;;;;5073660;28;20125;-80
2022/10/09 05:56:39;;;;;;;8.70;4.78;;;4.70;99.90;;;;;;5073703;28;20056;-80
2022/10/09 05:59:18;;;;;;;7.72;4.55;;;4.70;99.90;;;;;;5073616;28;20036;-81
2022/10/09 06:01:47;;;;;;;13.30;5.05;;;4.70;99.90;;;;;;5074113;28;20047;-81
2022/10/09 06:04:17;;;;;;;8.15;4.55;;;4.70;99.90;;;;;;5073770;28;20381;-81
2022/10/09 06:06:46;;;;;;;6.30;4.40;;;4.70;99.90;;;;;;5073910;28;20392;-81
2022/10/09 06:09:13;;;;;;;6.55;4.28;;;4.90;99.90;;;;;;5073551;28;20063;-82
2022/10/09 06:11:39;;;;;;;10.23;5.00;;;4.70;99.90;;;;;;5073484;28;20481;-80
2022/10/09 06:14:07;;;;;;;8.88;4.90;;;4.70;99.90;;;;;;5073518;28;20055;-80
2022/10/09 06:16:35;;;;;;;8.00;4.40;;;4.80;99.90;;;;;;5073489;28;20094;-81
2022/10/09 06:19:02;;;;;;;11.45;5.10;;;4.80;99.90;;;;;;5073701;28;20123;-82
2022/10/09 06:21:28;;;;;;;8.10;4.45;;;5.20;99.90;;;;;;5073464;28;20052;-83
2022/10/09 06:23:55;;;;;;;8.70;4.35;;;4.80;99.90;;;;;;5075312;28;20140;-82
2022/10/09 06:26:22;;;;;;;8.65;4.50;;;4.80;99.90;;;;;;5077467;28;20384;-80
2022/10/09 06:28:48;;;;;;;6.78;4.38;;;4.80;99.90;;;;;;5077351;28;20036;-80
2022/10/09 06:31:17;;;;;;;6.68;4.25;;;4.80;99.90;;;;;;5077679;28;20055;-80
2022/10/09 06:33:44;;;;;;;8.15;4.35;;;4.90;99.90;;;;;;5076265;28;20044;-82
2022/10/09 06:36:14;;;;;;;8.05;4.85;;;4.90;99.90;;;;;;5077344;28;20117;-81
2022/10/09 06:38:40;;;;;;;13.25;4.85;;;4.90;99.90;;;;;;5076010;28;20044;-80
2022/10/09 06:41:21;;;;;;;8.55;4.57;;;5.00;99.90;;;;;;5076912;28;20128;-80
2022/10/09 06:44:02;;;;;;;7.57;4.43;;;5.00;99.90;;;;;;5077047;28;20139;-79
2022/10/09 06:46:32;;;;;;;9.57;5.18;;;5.00;99.90;;;;;;5077114;28;20177;-81
2022/10/09 06:48:58;;;;;;;8.77;5.07;;;5.10;99.90;;;;;;5077103;28;20053;-80
2022/10/09 06:51:26;;;;;;;9.13;5.63;;;5.20;99.90;;;;;;5076882;28;20040;-80
2022/10/09 06:53:54;;;;;;;10.55;6.50;;;5.20;99.90;;;;;;5076954;28;20045;-79
2022/10/09 06:56:22;;;;;;;12.80;6.82;;;5.20;99.90;;;;;;5076920;28;20048;-82
2022/10/09 06:58:47;;;;;;;9.85;6.15;;;5.30;99.90;;;;;;5076895;28;20044;-80
2022/10/09 07:01:16;;;;;;;12.55;6.70;;;5.40;99.90;;;;;;5076828;28;20500;-81
2022/10/09 07:03:44;;;;;;;11.07;6.13;;;5.40;99.90;;;;;;5076735;28;20080;-81
2022/10/09 07:06:15;;;;;;;13.50;6.80;;;5.40;99.90;;;;;;5076695;28;20097;-80
2022/10/09 07:08:43;;;;;;;13.57;8.20;;;5.50;99.90;;;;;;5075604;28;20040;-80
2022/10/09 07:11:19;;;;;;;11.85;7.15;;;5.60;99.90;;;;;;5075435;28;20048;-80
2022/10/09 07:13:45;;;;;;;10.85;6.78;;;5.70;99.90;;;;;;5076699;28;20043;-81
2022/10/09 07:16:11;;;;;;;15.52;6.78;;;5.80;99.90;;;;;;5076621;28;20040;-81
2022/10/09 07:18:37;;;;;;;13.70;8.20;;;5.80;99.90;;;;;;5076450;28;20032;-81
2022/10/09 07:21:06;;;;;;;16.27;8.45;;;5.90;99.90;;;;;;5076901;28;20134;-80
2022/10/09 07:23:33;;;;;;;13.80;9.20;;;6.00;99.90;;;;;;5076383;28;20044;-80
2022/10/09 07:26:00;;;;;;;17.30;8.90;;;6.10;99.90;;;;;;5076659;28;20079;-80
2022/10/09 07:28:27;;;;;;;15.50;8.38;;;6.20;99.90;;;;;;5075854;28;20400;-80
2022/10/09 07:30:52;;;;;;;14.40;9.18;;;6.30;99.90;;;;;;5075221;28;20045;-80
2022/10/09 07:33:18;;;;;;;15.07;9.38;;;6.60;99.90;;;;;;5076236;28;20082;-80
2022/10/09 07:35:53;;;;;;;25.08;10.50;;;6.50;99.90;;;;;;5075217;28;20090;-80
2022/10/09 07:38:18;;;;;;;18.30;10.27;;;6.50;99.90;;;;;;5076180;28;20045;-80
2022/10/09 07:40:44;;;;;;;17.50;10.30;;;6.60;99.90;;;;;;5076131;28;20581;-81
2022/10/09 07:43:09;;;;;;;19.20;11.82;;;6.70;99.90;;;;;;5074967;28;20048;-79
2022/10/09 07:45:35;;;;;;;16.90;11.07;;;6.80;99.90;;;;;;5075894;28;20150;-81
2022/10/09 07:48:00;;;;;;;20.73;10.30;;;6.90;99.90;;;;;;5075856;28;20495;-81
2022/10/09 07:50:26;;;;;;;19.02;11.05;;;7.00;99.90;;;;;;5075862;28;20384;-81
2022/10/09 07:52:51;;;;;;;19.45;9.88;;;7.10;99.90;;;;;;5075859;28;20138;-80
2022/10/09 07:55:17;;;;;;;22.27;11.55;;;7.20;99.90;;;;;;5075765;28;20049;-80
2022/10/09 07:57:42;;;;;;;17.70;11.05;;;7.30;99.90;;;;;;5075738;28;20044;-80
2022/10/09 08:00:09;;;;;;;18.75;12.40;;;7.50;99.90;;;;;;5075745;28;20076;-80
2022/10/09 08:02:34;;;;;;;21.08;10.00;;;7.60;99.90;;;;;;5075622;28;20078;-80
2022/10/09 08:05:00;;;;;;;19.73;9.98;;;7.70;99.90;;;;;;5075347;28;20044;-80
2022/10/09 08:07:25;;;;;;;15.50;11.30;;;7.80;99.90;;;;;;5075561;28;20121;-80
2022/10/09 08:09:51;;;;;;;24.92;10.23;;;8.40;99.90;;;;;;5075688;28;20040;-80
2022/10/09 08:12:17;;;;;;;16.23;9.13;;;8.00;99.90;;;;;;5075486;28;20040;-80
2022/10/09 08:14:42;;;;;;;14.93;9.45;;;8.00;99.90;;;;;;5075430;28;20040;-80
2022/10/09 08:17:08;;;;;;;17.50;9.73;;;8.10;99.90;;;;;;5075344;28;20396;-80
2022/10/09 08:19:34;;;;;;;16.00;8.95;;;8.20;99.90;;;;;;5075008;28;20404;-79
2022/10/09 08:21:59;;;;;;;17.10;10.55;;;8.30;99.90;;;;;;5075339;28;20047;-79
2022/10/09 08:24:25;;;;;;;19.58;10.15;;;8.40;99.90;;;;;;5074761;28;20044;-79
2022/10/09 08:26:50;;;;;;;13.90;9.05;;;9.60;99.90;;;;;;5075187;28;20048;-80
2022/10/09 08:29:19;;;;;;;19.10;10.73;;;8.70;99.90;;;;;;5075020;28;20491;-80
2022/10/09 08:31:45;;;;;;;17.55;9.13;;;8.80;99.90;;;;;;5075058;28;20045;-80
2022/10/09 08:34:10;;;;;;;17.88;9.93;;;8.90;99.90;;;;;;5074918;28;20385;-80
2022/10/09 08:36:36;;;;;;;15.52;9.18;;;9.10;99.90;;;;;;5075354;28;20040;-80
2022/10/09 08:39:02;;;;;;;15.73;8.25;;;9.20;99.90;;;;;;5075328;28;20045;-80
2022/10/09 08:41:40;;;;;;;19.83;8.63;;;9.30;99.90;;;;;;5074937;28;20506;-80
2022/10/09 08:44:28;;;;;;;11.55;8.05;;;9.50;99.90;;;;;;5075079;28;20378;-80
2022/10/09 08:47:03;;;;;;;13.35;7.55;;;9.60;99.90;;;;;;5074540;28;20040;-79
2022/10/09 08:49:45;;;;;;;16.90;8.10;;;9.70;99.90;;;;;;5075226;28;20457;-79
2022/10/09 08:52:42;;;;;;;12.15;7.60;;;9.90;99.90;;;;;;5073583;28;20128;-80
2022/10/09 08:55:17;;;;;;;13.98;7.38;;;10.10;99.90;;;;;;5074620;28;20607;-80
2022/10/09 08:57:45;;;;;;;13.82;7.03;;;10.20;99.90;;;;;;5074806;28;20053;-80
2022/10/09 09:00:17;;;;;;;13.00;7.57;;;10.30;99.90;;;;;;5074728;28;20115;-80
2022/10/09 09:03:01;;;;;;;19.55;7.45;;;10.40;99.90;;;;;;5074505;28;20384;-80
2022/10/09 09:05:32;;;;;;;11.77;6.32;;;10.40;99.90;;;;;;5074839;28;20045;-80
2022/10/09 09:08:16;;;;;;;12.57;6.30;;;10.60;99.90;;;;;;5074344;28;20495;-79
2022/10/09 09:10:46;;;;;;;11.30;6.43;;;10.70;99.90;;;;;;5074652;28;20135;-80
2022/10/09 09:13:26;;;;;;;12.13;7.22;;;10.80;99.90;;;;;;5074270;28;20040;-79
2022/10/09 09:16:16;;;;;;;12.57;6.32;;;11.00;99.90;;;;;;5074281;28;20044;-79
2022/10/09 09:19:14;;;;;;;13.20;5.90;;;11.10;99.90;;;;;;5074216;28;20584;-80
2022/10/09 09:21:49;;;;;;;7.78;5.55;;;11.20;99.90;;;;;;5037665;28;20057;-80
2022/10/09 09:24:19;;;;;;;13.02;5.75;;;11.30;99.90;;;;;;5074152;28;20040;-80
2022/10/09 09:26:49;;;;;;;9.07;5.28;;;11.40;99.90;;;;;;5074100;28;20036;-80
2022/10/09 09:29:22;;;;;;;13.07;5.63;;;11.50;99.90;;;;;;5073000;28;20150;-80
2022/10/09 09:31:56;;;;;;;8.88;5.38;;;11.50;99.90;;;;;;5074221;28;20044;-80
2022/10/09 09:34:38;;;;;;;13.48;5.88;;;11.70;99.90;;;;;;5073961;28;20040;-79
2022/10/09 09:37:04;;;;;;;12.60;4.80;;;11.70;99.90;;;;;;5073953;28;20084;-80
2022/10/09 09:39:32;;;;;;;13.57;4.75;;;11.80;99.90;;;;;;5073934;28;20080;-80
2022/10/09 09:42:01;;;;;;;11.05;5.03;;;11.80;99.90;;;;;;5074009;28;20048;-80
2022/10/09 09:44:30;;;;;;;7.78;4.20;;;12.00;99.90;;;;;;5074067;28;20036;-80
2022/10/09 09:46:56;;;;;;;9.70;4.07;;;12.80;99.90;;;;;;5073797;28;20055;-80
2022/10/09 09:49:26;;;;;;;8.18;4.40;;;12.20;99.90;;;;;;5073704;28;20033;-80
2022/10/09 09:51:55;;;;;;;11.20;4.63;;;12.30;99.90;;;;;;5073613;28;20480;-80
2022/10/09 09:54:26;;;;;;;11.50;4.63;;;12.40;99.90;;;;;;5073786;28;20041;-80
2022/10/09 09:56:55;;;;;;;9.98;4.18;;;12.40;99.90;;;;;;5073242;28;20503;-80
2022/10/09 09:59:26;;;;;;;9.60;4.03;;;12.10;99.90;;;;;;5073422;28;20045;-79
2022/10/09 10:02:11;;;;;;;9.15;3.92;;;13.20;99.90;;;;;;5073639;28;20052;-80
2022/10/09 10:04:37;;;;;;;9.27;3.92;;;12.40;99.90;;;;;;5073646;28;20040;-80
2022/10/09 10:07:04;;;;;;;10.43;4.05;;;12.70;99.90;;;;;;5073705;28;20045;-80
2022/10/09 10:09:30;;;;;;;10.63;4.40;;;13.40;99.90;;;;;;5073616;28;20082;-80
2022/10/09 10:12:02;;;;;;;10.63;3.88;;;12.90;99.90;;;;;;5073590;28;20446;-80
2022/10/09 10:14:29;;;;;;;9.75;3.55;;;13.00;99.90;;;;;;5073524;28;20055;-80
2022/10/09 10:16:57;;;;;;;11.63;4.22;;;12.40;99.90;;;;;;5072735;28;20048;-80
2022/10/09 10:19:29;;;;;;;8.60;3.88;;;13.50;99.90;;;;;;5073728;28;20504;-80
2022/10/09 10:22:03;;;;;;;10.93;3.95;;;13.10;99.90;;;;;;5073710;28;20062;-79
2022/10/09 10:24:41;;;;;;;11.75;4.05;;;13.20;99.90;;;;;;5073456;28;20043;-80
2022/10/09 10:27:31;;;;;;;8.10;3.22;;;13.30;99.90;;;;;;5073842;28;20040;-80
2022/10/09 10:30:03;;;;;;;10.07;3.80;;;13.30;99.90;;;;;;5073594;28;20047;-80
2022/10/09 10:32:39;;;;;;;8.43;3.00;;;13.50;99.90;;;;;;5073489;28;20431;-80
2022/10/09 10:35:13;;;;;;;9.93;3.33;;;13.50;99.90;;;;;;5055633;28;20056;-80
2022/10/09 10:37:53;;;;;;;8.82;3.17;;;13.50;99.90;;;;;;5073751;28;20119;-80
2022/10/09 10:40:25;;;;;;;9.10;3.03;;;14.00;99.90;;;;;;5073371;28;20050;-80
2022/10/09 10:43:09;;;;;;;10.73;3.35;;;13.80;99.90;;;;;;5072243;28;20377;-80
2022/10/09 10:45:51;;;;;;;12.13;3.28;;;13.70;99.90;;;;;;5073128;28;20489;-80
2022/10/09 10:48:41;;;;;;;8.40;3.08;;;13.80;99.90;;;;;;5073490;28;20041;-80
2022/10/09 10:51:25;;;;;;;6.70;2.75;;;13.90;99.90;;;;;;5073362;28;20377;-80
2022/10/09 10:53:51;;;;;;;7.68;3.17;;;14.00;99.90;;;;;;5073097;28;20040;-79
2022/10/09 10:56:28;;;;;;;8.07;3.03;;;14.00;99.90;;;;;;5073173;28;20109;-79
2022/10/09 10:59:06;;;;;;;;;;;14.00;99.90;;;;;;5073532;28;20044;-80
2022/10/09 11:01:47;;;;;;;5.97;2.25;;;14.00;99.90;;;;;;5073147;28;19955;-80
2022/10/09 11:04:34;;;;;;;8.88;2.67;;;14.10;99.90;;;;;;5073149;28;20202;-80
2022/10/09 11:07:05;;;;;;;5.93;2.20;;;14.10;99.90;;;;;;5073467;28;20115;-80
2022/10/09 11:09:58;;;;;;;5.35;1.90;;;14.20;99.90;;;;;;5075172;28;20044;-80
2022/10/09 11:12:36;;;;;;;5.10;1.92;;;14.30;99.90;;;;;;5076610;28;20056;-80
2022/10/09 11:15:20;;;;;;;5.28;1.90;;;14.30;99.90;;;;;;5076557;28;20480;-80
2022/10/09 11:18:27;;;;;;;7.93;2.13;;;14.60;99.90;;;;;;5076527;28;20086;-80
2022/10/09 11:21:11;;;;;;;5.47;1.92;;;14.40;99.90;;;;;;5076198;28;20051;-79
2022/10/09 11:23:36;;;;;;;6.00;1.80;;;14.50;99.90;;;;;;5076801;28;20373;-79
2022/10/09 11:26:30;;;;;;;5.97;1.90;;;14.50;99.90;;;;;;5076400;28;20113;-80
2022/10/09 11:29:04;;;;;;;5.13;1.83;;;14.70;99.90;;;;;;5076507;28;20443;-80
2022/10/09 11:31:41;;;;;;;6.10;1.80;;;15.20;99.90;;;;;;5076244;28;20048;-80
2022/10/09 11:34:14;;;;;;;8.30;2.05;;;14.70;99.90;;;;;;5075066;28;20040;-80
2022/10/09 11:36:42;;;;;;;6.90;1.95;;;14.70;99.90;;;;;;5076531;28;20431;-80
2022/10/09 11:39:17;;;;;;;5.95;1.98;;;15.00;99.90;;;;;;5076108;28;20037;-80
2022/10/09 11:41:45;;;;;;;5.95;2.30;;;15.00;99.90;;;;;;5076148;28;20051;-80
2022/10/09 11:44:48;;;;;;;5.63;1.98;;;14.50;99.90;;;;;;5076529;28;20141;-79
2022/10/09 11:47:31;;;;;;;8.25;1.92;;;15.10;99.90;;;;;;5075828;28;20135;-79
2022/10/09 11:50:14;;;;;;;7.38;1.83;;;15.10;99.90;;;;;;5074709;28;20461;-80
2022/10/09 11:53:05;;;;;;;5.35;2.00;;;15.20;99.90;;;;;;5075968;28;20037;-80
2022/10/09 11:55:33;;;;;;;6.40;1.85;;;15.20;99.90;;;;;;5076302;28;20045;-80
2022/10/09 11:58:17;;;;;;;8.70;2.00;;;15.30;99.90;;;;;;5076100;28;20048;-80
2022/10/09 12:00:43;;;;;;;7.47;2.58;;;15.20;99.90;;;;;;5075570;28;20507;-80
2022/10/09 12:03:25;;;;;;;6.30;2.10;;;15.50;99.90;;;;;;5076075;28;20102;-80
2022/10/09 12:05:51;;;;;;;5.03;1.88;;;15.20;99.90;;;;;;5076330;28;20044;-80
2022/10/09 12:08:24;;;;;;;7.33;2.10;;;15.80;99.90;;;;;;5075309;28;20059;-80
2022/10/09 12:10:57;;;;;;;6.82;2.03;;;15.00;99.90;;;;;;5075580;28;20090;-80
2022/10/09 12:13:44;;;;;;;5.60;1.88;;;15.30;99.90;;;;;;5074514;28;20102;-80
2022/10/09 12:16:36;;;;;;;5.55;2.10;;;15.40;99.90;;;;;;5075406;28;20388;-80
2022/10/09 12:19:16;;;;;;;5.80;2.13;;;15.50;99.90;;;;;;5075616;28;20037;-80
2022/10/09 12:21:56;;;;;;;6.70;2.20;;;15.60;99.90;;;;;;5074737;28;20048;-80
2022/10/09 12:24:28;;;;;;;6.53;2.17;;;15.60;99.90;;;;;;5075688;28;20083;-80
2022/10/09 12:26:58;;;;;;;5.80;2.10;;;15.70;99.90;;;;;;5075531;28;20431;-80
2022/10/09 12:29:27;;;;;;;6.95;2.25;;;15.70;99.90;;;;;;5075079;28;20475;-80
2022/10/09 12:31:57;;;;;;;6.28;2.28;;;15.90;99.90;;;;;;5075194;28;20087;-80
2022/10/09 12:34:28;;;;;;;5.35;1.90;;;15.60;99.90;;;;;;5075010;28;20041;-80
2022/10/09 12:37:11;;;;;;;6.40;2.17;;;15.70;99.90;;;;;;5075101;28;20044;-80
2022/10/09 12:39:37;;;;;;;6.53;2.53;;;15.50;99.90;;;;;;5074784;28;20127;-80
2022/10/09 12:42:03;;;;;;;6.57;2.20;;;15.50;99.90;;;;;;5074704;28;20075;-80
2022/10/09 12:44:35;;;;;;;5.70;2.27;;;15.50;99.90;;;;;;5075037;28;20049;-80
2022/10/09 12:47:07;;;;;;;5.80;2.15;;;15.60;99.90;;;;;;5074820;28;20091;-80
2022/10/09 12:49:33;;;;;;;6.38;2.08;;;15.60;99.90;;;;;;5075270;28;20040;-80
2022/10/09 12:51:59;;;;;;;8.30;2.50;;;15.40;99.90;;;;;;5074797;28;20056;-80
2022/10/09 12:54:28;;;;;;;7.73;2.30;;;15.50;99.90;;;;;;5074695;28;20044;-80
2022/10/09 12:56:56;;;;;;;6.00;2.38;;;15.40;99.90;;;;;;5074659;28;20340;-80
2022/10/09 12:59:24;;;;;;;4.80;2.22;;;15.60;99.90;;;;;;5073353;28;20052;-81
2022/10/09 13:01:54;;;;;;;7.65;2.20;;;15.40;99.90;;;;;;5074272;28;20488;-80
2022/10/09 13:04:25;;;;;;;6.20;2.38;;;15.30;99.90;;;;;;5074506;28;20040;-80
2022/10/09 13:06:51;;;;;;;6.80;2.63;;;15.30;99.90;;;;;;5073625;28;20079;-80
2022/10/09 13:09:25;;;;;;;5.50;2.40;;;15.30;99.90;;;;;;5074393;28;20082;-80